sensor_id;sensor_type;location;lat;lon;timestamp;pressure;altitude;pressure_sealevel;temperature;humidity
61128;BME280;47013;42.664;23.242;2024-02-26T00:01:41;93529.25;;;8.08;100.00
61128;BME280;47013;42.664;23.242;2024-02-26T00:04:09;93531.09;;;8.15;100.00
61128;BME280;47013;42.664;23.242;2024-02-26T00:06:34;93529.19;;;8.15;100.00
61128;BME280;47013;42.664;23.242;2024-02-26T00:09:00;93531.06;;;8.18;100.00
61128;BME280;47013;42.664;23.242;2024-02-26T00:11:27;93523.34;;;8.20;100.00
61128;BME280;47013;42.664;23.242;2024-02-26T00:13:53;93527.94;;;8.23;100.00
61128;BME280;47013;42.664;23.242;2024-02-26T00:16:18;93521.44;;;8.21;100.00
61128;BME280;47013;42.664;23.242;2024-02-26T00:18:43;93527.88;;;7.86;100.00
61128;BME280;47013;42.664;23.242;2024-02-26T00:21:09;93529.34;;;7.94;100.00
61128;BME280;47013;42.664;23.242;2024-02-26T00:23:34;93522.53;;;7.79;100.00
61128;BME280;47013;42.664;23.242;2024-02-26T00:25:59;93520.19;;;7.81;100.00
61128;BME280;47013;42.664;23.242;2024-02-26T00:28:25;93517.81;;;7.90;100.00
61128;BME280;47013;42.664;23.242;2024-02-26T00:30:51;93509.66;;;7.97;100.00
61128;BME280;47013;42.664;23.242;2024-02-26T00:33:21;93506.47;;;8.09;100.00
61128;BME280;47013;42.664;23.242;2024-02-26T00:35:47;93515.63;;;8.19;100.00
61128;BME280;47013;42.664;23.242;2024-02-26T00:38:13;93513.28;;;8.24;100.00
61128;BME280;47013;42.664;23.242;2024-02-26T00:40:38;93503.59;;;8.27;100.00
61128;BME280;47013;42.664;23.242;2024-02-26T00:43:04;93498.53;;;8.33;100.00
61128;BME280;47013;42.664;23.242;2024-02-26T00:45:29;93495.78;;;8.40;100.00
61128;BME280;47013;42.664;23.242;2024-02-26T00:47:57;93495.72;;;8.47;100.00
61128;BME280;47013;42.664;23.242;2024-02-26T00:50:22;93490.91;;;8.24;100.00
61128;BME280;47013;42.664;23.242;2024-02-26T00:52:48;93501.44;;;8.11;100.00
61128;BME280;47013;42.664;23.242;2024-02-26T00:55:13;93498.78;;;8.08;100.00
61128;BME280;47013;42.664;23.242;2024-02-26T00:57:38;93498.31;;;8.16;100.00
61128;BME280;47013;42.664;23.242;2024-02-26T01:00:06;93493.59;;;8.24;100.00
61128;BME280;47013;42.664;23.242;2024-02-26T01:02:34;93485.88;;;8.26;100.00
61128;BME280;47013;42.664;23.242;2024-02-26T01:04:59;93486.22;;;8.28;100.00
61128;BME280;47013;42.664;23.242;2024-02-26T01:07:24;93483.88;;;8.34;100.00
61128;BME280;47013;42.664;23.242;2024-02-26T01:09:50;93481.94;;;8.38;100.00
61128;BME280;47013;42.664;23.242;2024-02-26T01:12:15;93481.94;;;8.38;100.00
61128;BME280;47013;42.664;23.242;2024-02-26T01:14:41;93486.13;;;8.42;100.00
61128;BME280;47013;42.664;23.242;2024-02-26T01:17:06;93481.47;;;8.46;100.00
61128;BME280;47013;42.664;23.242;2024-02-26T01:19:31;93475.19;;;8.53;100.00
61128;BME280;47013;42.664;23.242;2024-02-26T01:21:57;93477.44;;;8.58;100.00
61128;BME280;47013;42.664;23.242;2024-02-26T01:24:22;93471.28;;;8.57;100.00
61128;BME280;47013;42.664;23.242;2024-02-26T01:26:47;93480.84;;;8.66;100.00
61128;BME280;47013;42.664;23.242;2024-02-26T01:29:13;93470.38;;;8.68;100.00
61128;BME280;47013;42.664;23.242;2024-02-26T01:31:38;93471.50;;;8.70;100.00
61128;BME280;47013;42.664;23.242;2024-02-26T01:34:03;93466.84;;;8.74;100.00
61128;BME280;47013;42.664;23.242;2024-02-26T01:36:29;93467.97;;;8.77;100.00
61128;BME280;47013;42.664;23.242;2024-02-26T01:38:54;93469.91;;;8.76;100.00
61128;BME280;47013;42.664;23.242;2024-02-26T01:41:19;93472.28;;;8.71;100.00
61128;BME280;47013;42.664;23.242;2024-02-26T01:43:45;93467.81;;;8.57;100.00
61128;BME280;47013;42.664;23.242;2024-02-26T01:46:12;93475.50;;;8.62;100.00
61128;BME280;47013;42.664;23.242;2024-02-26T01:48:45;93468.16;;;8.63;100.00
61128;BME280;47013;42.664;23.242;2024-02-26T01:51:12;93472.72;;;8.66;100.00
61128;BME280;47013;42.664;23.242;2024-02-26T01:53:39;93466.50;;;8.69;100.00
61128;BME280;47013;42.664;23.242;2024-02-26T01:56:05;93463.81;;;8.69;100.00
61128;BME280;47013;42.664;23.242;2024-02-26T01:58:32;93462.63;;;8.73;100.00
61128;BME280;47013;42.664;23.242;2024-02-26T02:00:58;93464.56;;;8.73;100.00
61128;BME280;47013;42.664;23.242;2024-02-26T02:03:24;93464.16;;;8.71;100.00
61128;BME280;47013;42.664;23.242;2024-02-26T02:05:50;93468.81;;;8.70;100.00
61128;BME280;47013;42.664;23.242;2024-02-26T02:08:15;93456.88;;;8.68;100.00
61128;BME280;47013;42.664;23.242;2024-02-26T02:10:43;93465.34;;;8.70;100.00
61128;BME280;47013;42.664;23.242;2024-02-26T02:13:09;93459.91;;;8.73;100.00
61128;BME280;47013;42.664;23.242;2024-02-26T02:15:37;93461.06;;;8.72;100.00
61128;BME280;47013;42.664;23.242;2024-02-26T02:18:03;93461.00;;;8.79;100.00
61128;BME280;47013;42.664;23.242;2024-02-26T02:20:34;93452.47;;;8.81;100.00
61128;BME280;47013;42.664;23.242;2024-02-26T02:23:00;93458.22;;;8.86;100.00
61128;BME280;47013;42.664;23.242;2024-02-26T02:25:25;93455.09;;;8.88;100.00
61128;BME280;47013;42.664;23.242;2024-02-26T02:27:55;93461.69;;;8.83;100.00
61128;BME280;47013;42.664;23.242;2024-02-26T02:30:24;93455.22;;;8.77;100.00
61128;BME280;47013;42.664;23.242;2024-02-26T02:32:50;93447.53;;;8.76;100.00
61128;BME280;47013;42.664;23.242;2024-02-26T02:35:16;93445.88;;;8.82;100.00
61128;BME280;47013;42.664;23.242;2024-02-26T02:37:41;93442.00;;;8.86;100.00
61128;BME280;47013;42.664;23.242;2024-02-26T02:40:07;93456.69;;;8.85;100.00
61128;BME280;47013;42.664;23.242;2024-02-26T02:42:33;93464.84;;;8.48;100.00
61128;BME280;47013;42.664;23.242;2024-02-26T02:44:58;93459.03;;;8.49;100.00
61128;BME280;47013;42.664;23.242;2024-02-26T02:47:24;93460.84;;;8.60;100.00
61128;BME280;47013;42.664;23.242;2024-02-26T02:49:49;93459.16;;;8.69;100.00
61128;BME280;47013;42.664;23.242;2024-02-26T02:52:15;93465.69;;;8.75;100.00
61128;BME280;47013;42.664;23.242;2024-02-26T02:54:40;93469.09;;;8.79;100.00
61128;BME280;47013;42.664;23.242;2024-02-26T02:57:07;93468.63;;;8.88;100.00
61128;BME280;47013;42.664;23.242;2024-02-26T02:59:33;93471.63;;;8.63;100.00
61128;BME280;47013;42.664;23.242;2024-02-26T03:01:58;93469.63;;;8.67;100.00
61128;BME280;47013;42.664;23.242;2024-02-26T03:04:24;93467.63;;;8.71;100.00
61128;BME280;47013;42.664;23.242;2024-02-26T03:06:49;93464.16;;;8.74;100.00
61128;BME280;47013;42.664;23.242;2024-02-26T03:09:15;93466.09;;;8.74;100.00
61128;BME280;47013;42.664;23.242;2024-02-26T03:11:40;93474.84;;;8.81;100.00
61128;BME280;47013;42.664;23.242;2024-02-26T03:14:06;93476.03;;;8.80;100.00
61128;BME280;47013;42.664;23.242;2024-02-26T03:16:32;93469.09;;;8.79;100.00
61128;BME280;47013;42.664;23.242;2024-02-26T03:18:57;93470.22;;;8.82;100.00
61128;BME280;47013;42.664;23.242;2024-02-26T03:21:24;93459.75;;;8.84;100.00
61128;BME280;47013;42.664;23.242;2024-02-26T03:23:50;93466.31;;;8.86;100.00
61128;BME280;47013;42.664;23.242;2024-02-26T03:26:15;93462.03;;;8.89;100.00
61128;BME280;47013;42.664;23.242;2024-02-26T03:28:40;93456.56;;;8.93;100.00
61128;BME280;47013;42.664;23.242;2024-02-26T03:31:06;93456.56;;;8.93;100.00
61128;BME280;47013;42.664;23.242;2024-02-26T03:33:31;93453.09;;;8.92;100.00
61128;BME280;47013;42.664;23.242;2024-02-26T03:35:57;93438.41;;;8.93;100.00
61128;BME280;47013;42.664;23.242;2024-02-26T03:38:22;93436.88;;;8.92;100.00
61128;BME280;47013;42.664;23.242;2024-02-26T03:40:47;93445.41;;;8.91;100.00
61128;BME280;47013;42.664;23.242;2024-02-26T03:43:13;93441.16;;;8.90;100.00
61128;BME280;47013;42.664;23.242;2024-02-26T03:45:38;93447.34;;;8.90;100.00
61128;BME280;47013;42.664;23.242;2024-02-26T03:48:04;93446.94;;;8.92;100.00
61128;BME280;47013;42.664;23.242;2024-02-26T03:50:30;93440.41;;;8.89;100.00
61128;BME280;47013;42.664;23.242;2024-02-26T03:52:55;93436.53;;;8.90;100.00
61128;BME280;47013;42.664;23.242;2024-02-26T03:55:22;93441.94;;;8.90;100.00
61128;BME280;47013;42.664;23.242;2024-02-26T03:57:51;93441.13;;;8.59;100.00
61128;BME280;47013;42.664;23.242;2024-02-26T04:00:16;93436.59;;;8.52;100.00
61128;BME280;47013;42.664;23.242;2024-02-26T04:02:42;93433.09;;;8.55;100.00
61128;BME280;47013;42.664;23.242;2024-02-26T04:05:11;93431.47;;;8.62;100.00
61128;BME280;47013;42.664;23.242;2024-02-26T04:07:36;93434.13;;;8.65;100.00
61128;BME280;47013;42.664;23.242;2024-02-26T04:10:02;93439.50;;;8.69;100.00
61128;BME280;47013;42.664;23.242;2024-02-26T04:12:30;93431.38;;;8.69;100.00
61128;BME280;47013;42.664;23.242;2024-02-26T04:14:55;93437.53;;;8.73;100.00
61128;BME280;47013;42.664;23.242;2024-02-26T04:17:21;93431.75;;;8.71;100.00
61128;BME280;47013;42.664;23.242;2024-02-26T04:19:46;93422.84;;;8.74;100.00
61128;BME280;47013;42.664;23.242;2024-02-26T04:22:11;93425.91;;;8.76;100.00
61128;BME280;47013;42.664;23.242;2024-02-26T04:24:37;93425.91;;;8.76;100.00
61128;BME280;47013;42.664;23.242;2024-02-26T04:27:02;93425.91;;;8.76;100.00
61128;BME280;47013;42.664;23.242;2024-02-26T04:29:28;93425.91;;;8.76;100.00
61128;BME280;47013;42.664;23.242;2024-02-26T04:31:53;93418.19;;;8.74;100.00
61128;BME280;47013;42.664;23.242;2024-02-26T04:34:19;93424.72;;;8.77;100.00
61128;BME280;47013;42.664;23.242;2024-02-26T04:36:44;93430.91;;;8.77;100.00
61128;BME280;47013;42.664;23.242;2024-02-26T04:39:09;93428.91;;;8.81;100.00
61128;BME280;47013;42.664;23.242;2024-02-26T04:41:35;93424.31;;;8.78;100.00
61128;BME280;47013;42.664;23.242;2024-02-26T04:44:01;93424.31;;;8.78;100.00
61128;BME280;47013;42.664;23.242;2024-02-26T04:46:27;93428.13;;;8.81;100.00
61128;BME280;47013;42.664;23.242;2024-02-26T04:48:53;93425.03;;;8.82;100.00
61128;BME280;47013;42.664;23.242;2024-02-26T04:51:19;93428.06;;;8.88;100.00
61128;BME280;47013;42.664;23.242;2024-02-26T04:53:44;93425.34;;;8.88;100.00
61128;BME280;47013;42.664;23.242;2024-02-26T04:56:10;93433.06;;;8.90;100.00
61128;BME280;47013;42.664;23.242;2024-02-26T04:58:35;93448.09;;;8.91;100.00
61128;BME280;47013;42.664;23.242;2024-02-26T05:01:00;93445.03;;;8.89;100.00
61128;BME280;47013;42.664;23.242;2024-02-26T05:03:26;93446.22;;;8.88;100.00
61128;BME280;47013;42.664;23.242;2024-02-26T05:05:51;93448.16;;;8.87;100.00
61128;BME280;47013;42.664;23.242;2024-02-26T05:08:16;93450.09;;;8.86;100.00
61128;BME280;47013;42.664;23.242;2024-02-26T05:10:42;93455.13;;;8.84;100.00
61128;BME280;47013;42.664;23.242;2024-02-26T05:13:08;93462.47;;;8.84;100.00
61128;BME280;47013;42.664;23.242;2024-02-26T05:15:35;93460.94;;;8.83;100.00
61128;BME280;47013;42.664;23.242;2024-02-26T05:18:00;93460.56;;;8.81;100.00
61128;BME280;47013;42.664;23.242;2024-02-26T05:20:26;93470.28;;;8.78;100.00
61128;BME280;47013;42.664;23.242;2024-02-26T05:22:51;93476.69;;;8.57;100.00
61128;BME280;47013;42.664;23.242;2024-02-26T05:25:17;93476.69;;;8.57;100.00
61128;BME280;47013;42.664;23.242;2024-02-26T05:27:44;93474.25;;;8.67;100.00
61128;BME280;47013;42.664;23.242;2024-02-26T05:30:10;93481.16;;;8.71;100.00
61128;BME280;47013;42.664;23.242;2024-02-26T05:32:36;93492.59;;;8.82;100.00
61128;BME280;47013;42.664;23.242;2024-02-26T05:35:02;93483.31;;;8.83;100.00
61128;BME280;47013;42.664;23.242;2024-02-26T05:37:30;93490.25;;;8.88;100.00
61128;BME280;47013;42.664;23.242;2024-02-26T05:39:56;93485.19;;;8.90;100.00
61128;BME280;47013;42.664;23.242;2024-02-26T05:42:21;93486.72;;;8.91;100.00
61128;BME280;47013;42.664;23.242;2024-02-26T05:44:46;93480.91;;;8.93;100.00
61128;BME280;47013;42.664;23.242;2024-02-26T05:47:12;93484.78;;;8.92;100.00
61128;BME280;47013;42.664;23.242;2024-02-26T05:49:38;93494.53;;;8.85;100.00
61128;BME280;47013;42.664;23.242;2024-02-26T05:52:04;93499.53;;;8.83;100.00
61128;BME280;47013;42.664;23.242;2024-02-26T05:54:29;93494.53;;;8.85;100.00
61128;BME280;47013;42.664;23.242;2024-02-26T05:56:55;93490.25;;;8.84;100.00
61128;BME280;47013;42.664;23.242;2024-02-26T05:59:20;93487.56;;;8.84;100.00
61128;BME280;47013;42.664;23.242;2024-02-26T06:01:45;93485.84;;;8.98;100.00
61128;BME280;47013;42.664;23.242;2024-02-26T06:04:11;93498.00;;;9.16;100.00
61128;BME280;47013;42.664;23.242;2024-02-26T06:06:37;93506.91;;;9.13;100.00
61128;BME280;47013;42.664;23.242;2024-02-26T06:09:03;93500.22;;;9.22;100.00
61128;BME280;47013;42.664;23.242;2024-02-26T06:11:30;93506.81;;;9.21;100.00
61128;BME280;47013;42.664;23.242;2024-02-26T06:13:55;93501.00;;;9.22;100.00
61128;BME280;47013;42.664;23.242;2024-02-26T06:16:21;93498.41;;;9.15;100.00
61128;BME280;47013;42.664;23.242;2024-02-26T06:18:46;93504.84;;;8.94;100.00
61128;BME280;47013;42.664;23.242;2024-02-26T06:21:12;93507.94;;;8.93;100.00
61128;BME280;47013;42.664;23.242;2024-02-26T06:23:38;93507.53;;;8.94;100.00
61128;BME280;47013;42.664;23.242;2024-02-26T06:26:04;93498.59;;;8.97;100.00
61128;BME280;47013;42.664;23.242;2024-02-26T06:28:29;93504.00;;;9.01;100.00
61128;BME280;47013;42.664;23.242;2024-02-26T06:30:57;93500.88;;;9.02;100.00
61128;BME280;47013;42.664;23.242;2024-02-26T06:33:22;93506.19;;;9.09;100.00
61128;BME280;47013;42.664;23.242;2024-02-26T06:35:48;93516.59;;;9.11;100.00
61128;BME280;47013;42.664;23.242;2024-02-26T06:38:13;93505.38;;;9.12;100.00
61128;BME280;47013;42.664;23.242;2024-02-26T06:40:39;93508.03;;;9.16;100.00
61128;BME280;47013;42.664;23.242;2024-02-26T06:43:04;93501.81;;;9.19;100.00
61128;BME280;47013;42.664;23.242;2024-02-26T06:45:30;93501.88;;;9.15;100.00
61128;BME280;47013;42.664;23.242;2024-02-26T06:47:56;93507.63;;;9.18;100.00
61128;BME280;47013;42.664;23.242;2024-02-26T06:50:21;93508.75;;;9.20;100.00
61128;BME280;47013;42.664;23.242;2024-02-26T06:52:47;93512.59;;;9.23;100.00
61128;BME280;47013;42.664;23.242;2024-02-26T06:55:13;93509.09;;;9.26;100.00
61128;BME280;47013;42.664;23.242;2024-02-26T06:57:38;93514.88;;;9.24;100.00
61128;BME280;47013;42.664;23.242;2024-02-26T07:00:04;93522.56;;;9.29;100.00
61128;BME280;47013;42.664;23.242;2024-02-26T07:02:30;93518.31;;;9.28;100.00
61128;BME280;47013;42.664;23.242;2024-02-26T07:04:55;93510.97;;;9.29;100.00
61128;BME280;47013;42.664;23.242;2024-02-26T07:07:23;93507.03;;;9.33;100.00
61128;BME280;47013;42.664;23.242;2024-02-26T07:09:48;93513.94;;;9.38;100.00
61128;BME280;47013;42.664;23.242;2024-02-26T07:12:14;93520.41;;;9.44;100.00
61128;BME280;47013;42.664;23.242;2024-02-26T07:14:41;93523.41;;;9.53;100.00
61128;BME280;47013;42.664;23.242;2024-02-26T07:17:06;93533.41;;;9.56;100.00
61128;BME280;47013;42.664;23.242;2024-02-26T07:19:32;93527.63;;;9.54;100.00
61128;BME280;47013;42.664;23.242;2024-02-26T07:21:57;93531.09;;;9.55;100.00
61128;BME280;47013;42.664;23.242;2024-02-26T07:24:23;93531.94;;;9.52;100.00
61128;BME280;47013;42.664;23.242;2024-02-26T07:26:48;93537.28;;;9.55;100.00
61128;BME280;47013;42.664;23.242;2024-02-26T07:29:13;93531.81;;;9.59;100.00
61128;BME280;47013;42.664;23.242;2024-02-26T07:31:39;93531.75;;;9.62;100.00
61128;BME280;47013;42.664;23.242;2024-02-26T07:34:04;93526.25;;;9.69;100.00
61128;BME280;47013;42.664;23.242;2024-02-26T07:36:30;93522.72;;;9.72;100.00
61128;BME280;47013;42.664;23.242;2024-02-26T07:38:55;93529.09;;;9.59;100.00
61128;BME280;47013;42.664;23.242;2024-02-26T07:41:20;93526.59;;;9.44;100.00
61128;BME280;47013;42.664;23.242;2024-02-26T07:43:46;93532.09;;;9.37;100.00
61128;BME280;47013;42.664;23.242;2024-02-26T07:46:12;93536.19;;;9.49;100.00
61128;BME280;47013;42.664;23.242;2024-02-26T07:48:37;93529.09;;;9.59;100.00
61128;BME280;47013;42.664;23.242;2024-02-26T07:51:04;93528.94;;;9.69;100.00
61128;BME280;47013;42.664;23.242;2024-02-26T07:53:29;93519.66;;;9.70;100.00
61128;BME280;47013;42.664;23.242;2024-02-26T07:55:55;93526.81;;;9.57;100.00
61128;BME280;47013;42.664;23.242;2024-02-26T07:58:22;93530.75;;;9.53;100.00
61128;BME280;47013;42.664;23.242;2024-02-26T08:00:49;93535.84;;;9.47;100.00
61128;BME280;47013;42.664;23.242;2024-02-26T08:03:14;93531.19;;;9.48;100.00
61128;BME280;47013;42.664;23.242;2024-02-26T08:05:41;93526.53;;;9.48;100.00
61128;BME280;47013;42.664;23.242;2024-02-26T08:08:08;93529.88;;;9.59;100.00
61128;BME280;47013;42.664;23.242;2024-02-26T08:10:33;93512.78;;;9.66;100.00
61128;BME280;47013;42.664;23.242;2024-02-26T08:12:58;93523.25;;;9.87;100.00
61128;BME280;47013;42.664;23.242;2024-02-26T08:15:31;93523.81;;;9.79;100.00
61128;BME280;47013;42.664;23.242;2024-02-26T08:17:57;93517.91;;;9.84;100.00
61128;BME280;47013;42.664;23.242;2024-02-26T08:20:23;93532.34;;;10.00;100.00
61128;BME280;47013;42.664;23.242;2024-02-26T08:22:48;93526.06;;;10.07;99.41
61128;BME280;47013;42.664;23.242;2024-02-26T08:25:13;93518.94;;;10.17;99.55
61128;BME280;47013;42.664;23.242;2024-02-26T08:27:41;93523.91;;;10.22;98.66
61128;BME280;47013;42.664;23.242;2024-02-26T08:30:07;93519.03;;;10.10;98.23
61128;BME280;47013;42.664;23.242;2024-02-26T08:32:32;93518.69;;;10.08;98.17
61128;BME280;47013;42.664;23.242;2024-02-26T08:34:58;93522.47;;;9.90;98.33
61128;BME280;47013;42.664;23.242;2024-02-26T08:37:23;93515.03;;;9.94;99.16
61128;BME280;47013;42.664;23.242;2024-02-26T08:39:49;93523.22;;;10.14;98.78
61128;BME280;47013;42.664;23.242;2024-02-26T08:42:14;93520.38;;;10.25;98.30
61128;BME280;47013;42.664;23.242;2024-02-26T08:44:39;93516.59;;;10.42;97.95
61128;BME280;47013;42.664;23.242;2024-02-26T08:47:05;93519.47;;;10.55;97.35
61128;BME280;47013;42.664;23.242;2024-02-26T08:49:30;93515.59;;;10.32;96.94
61128;BME280;47013;42.664;23.242;2024-02-26T08:51:56;93515.53;;;10.36;97.56
61128;BME280;47013;42.664;23.242;2024-02-26T08:54:22;93519.69;;;10.41;100.00
61128;BME280;47013;42.664;23.242;2024-02-26T08:56:47;93520.34;;;10.48;99.93
61128;BME280;47013;42.664;23.242;2024-02-26T08:59:12;93520.59;;;10.57;99.52
61128;BME280;47013;42.664;23.242;2024-02-26T09:01:38;93515.50;;;10.59;98.59
61128;BME280;47013;42.664;23.242;2024-02-26T09:04:03;93515.75;;;10.88;99.95
61128;BME280;47013;42.664;23.242;2024-02-26T09:06:29;93516.38;;;10.96;96.11
61128;BME280;47013;42.664;23.242;2024-02-26T09:08:54;93508.09;;;11.03;94.38
61128;BME280;47013;42.664;23.242;2024-02-26T09:11:20;93503.38;;;11.07;94.72
61128;BME280;47013;42.664;23.242;2024-02-26T09:13:45;93508.56;;;11.18;94.96
61128;BME280;47013;42.664;23.242;2024-02-26T09:16:11;93503.00;;;11.25;94.33
61128;BME280;47013;42.664;23.242;2024-02-26T09:18:37;93509.03;;;11.33;94.57
61128;BME280;47013;42.664;23.242;2024-02-26T09:21:06;93509.66;;;11.40;93.81
61128;BME280;47013;42.664;23.242;2024-02-26T09:23:31;93506.94;;;11.40;93.32
61128;BME280;47013;42.664;23.242;2024-02-26T09:25:56;93508.78;;;11.43;93.02
61128;BME280;47013;42.664;23.242;2024-02-26T09:28:22;93506.69;;;11.35;92.86
61128;BME280;47013;42.664;23.242;2024-02-26T09:30:47;93507.28;;;11.42;92.87
61128;BME280;47013;42.664;23.242;2024-02-26T09:33:15;93498.06;;;11.56;92.25
61128;BME280;47013;42.664;23.242;2024-02-26T09:35:40;93504.28;;;11.73;93.72
61128;BME280;47013;42.664;23.242;2024-02-26T09:38:06;93500.72;;;11.76;91.46
61128;BME280;47013;42.664;23.242;2024-02-26T09:40:32;93499.47;;;11.80;90.60
61128;BME280;47013;42.664;23.242;2024-02-26T09:43:00;93501.19;;;11.91;90.55
61128;BME280;47013;42.664;23.242;2024-02-26T09:45:28;93495.22;;;11.96;89.00
61128;BME280;47013;42.664;23.242;2024-02-26T09:47:55;93487.00;;;11.99;89.13
61128;BME280;47013;42.664;23.242;2024-02-26T09:50:22;93501.09;;;11.94;88.57
61128;BME280;47013;42.664;23.242;2024-02-26T09:52:50;93494.91;;;11.94;89.23
61128;BME280;47013;42.664;23.242;2024-02-26T09:55:16;93489.72;;;11.99;89.08
61128;BME280;47013;42.664;23.242;2024-02-26T09:57:45;93483.88;;;12.01;88.04
61128;BME280;47013;42.664;23.242;2024-02-26T10:00:17;93482.06;;;12.10;88.42
61128;BME280;47013;42.664;23.242;2024-02-26T10:02:44;93479.09;;;12.21;87.85
61128;BME280;47013;42.664;23.242;2024-02-26T10:05:12;93469.25;;;12.27;87.61
61128;BME280;47013;42.664;23.242;2024-02-26T10:07:40;93476.38;;;12.21;85.32
61128;BME280;47013;42.664;23.242;2024-02-26T10:10:08;93473.97;;;12.23;83.91
61128;BME280;47013;42.664;23.242;2024-02-26T10:12:33;93463.09;;;12.23;81.75
61128;BME280;47013;42.664;23.242;2024-02-26T10:14:59;93465.13;;;12.35;82.32
61128;BME280;47013;42.664;23.242;2024-02-26T10:17:24;93460.88;;;12.34;81.35
61128;BME280;47013;42.664;23.242;2024-02-26T10:19:50;93453.06;;;12.36;80.68
61128;BME280;47013;42.664;23.242;2024-02-26T10:22:17;93451.53;;;12.35;79.94
61128;BME280;47013;42.664;23.242;2024-02-26T10:24:42;93454.41;;;12.45;80.76
61128;BME280;47013;42.664;23.242;2024-02-26T10:27:08;93451.41;;;12.55;80.69
61128;BME280;47013;42.664;23.242;2024-02-26T10:29:34;93452.94;;;12.56;79.98
61128;BME280;47013;42.664;23.242;2024-02-26T10:32:00;93438.31;;;12.66;80.40
61128;BME280;47013;42.664;23.242;2024-02-26T10:34:26;93442.69;;;12.77;79.35
61128;BME280;47013;42.664;23.242;2024-02-26T10:36:53;93445.09;;;12.87;79.13
61128;BME280;47013;42.664;23.242;2024-02-26T10:39:19;93438.34;;;12.79;77.46
61128;BME280;47013;42.664;23.242;2024-02-26T10:41:44;93430.38;;;12.72;78.43
61128;BME280;47013;42.664;23.242;2024-02-26T10:44:12;93432.56;;;12.77;78.47
61128;BME280;47013;42.664;23.242;2024-02-26T10:46:40;93436.22;;;12.70;78.02
61128;BME280;47013;42.664;23.242;2024-02-26T10:49:05;93429.84;;;12.77;77.90
61128;BME280;47013;42.664;23.242;2024-02-26T10:51:34;93419.47;;;12.72;77.73
61128;BME280;47013;42.664;23.242;2024-02-26T10:54:04;93425.16;;;12.78;78.04
61128;BME280;47013;42.664;23.242;2024-02-26T10:56:34;93423.75;;;12.86;77.21
61128;BME280;47013;42.664;23.242;2024-02-26T10:59:00;93423.09;;;12.82;77.29
61128;BME280;47013;42.664;23.242;2024-02-26T11:01:27;93415.16;;;12.87;76.61
61128;BME280;47013;42.664;23.242;2024-02-26T11:03:55;93410.69;;;12.81;74.83
61128;BME280;47013;42.664;23.242;2024-02-26T11:06:21;93410.03;;;12.77;75.88
61128;BME280;47013;42.664;23.242;2024-02-26T11:08:50;93399.78;;;12.68;75.70
61128;BME280;47013;42.664;23.242;2024-02-26T11:11:17;93408.31;;;12.83;75.75
61128;BME280;47013;42.664;23.242;2024-02-26T11:13:48;93412.56;;;12.84;74.94
61128;BME280;47013;42.664;23.242;2024-02-26T11:16:20;93409.50;;;12.82;75.76
61128;BME280;47013;42.664;23.242;2024-02-26T11:18:47;93412.00;;;12.89;75.66
61128;BME280;47013;42.664;23.242;2024-02-26T11:21:16;93411.25;;;12.88;75.29
61128;BME280;47013;42.664;23.242;2024-02-26T11:23:48;93406.91;;;12.91;74.58
61128;BME280;47013;42.664;23.242;2024-02-26T11:26:15;93413.13;;;12.91;74.38
61128;BME280;47013;42.664;23.242;2024-02-26T11:28:41;93410.06;;;12.89;73.70
61128;BME280;47013;42.664;23.242;2024-02-26T11:31:08;93406.81;;;12.94;74.29
61128;BME280;47013;42.664;23.242;2024-02-26T11:33:34;93401.56;;;12.87;73.38
61128;BME280;47013;42.664;23.242;2024-02-26T11:36:09;93398.31;;;12.92;73.80
61128;BME280;47013;42.664;23.242;2024-02-26T11:38:36;93394.78;;;12.66;74.01
61128;BME280;47013;42.664;23.242;2024-02-26T11:41:04;93392.16;;;12.76;74.57
61128;BME280;47013;42.664;23.242;2024-02-26T11:43:58;93392.56;;;12.90;74.71
61128;BME280;47013;42.664;23.242;2024-02-26T11:51:27;93395.16;;;12.94;74.23
61128;BME280;47013;42.664;23.242;2024-02-26T11:53:53;93393.78;;;13.02;73.90
61128;BME280;47013;42.664;23.242;2024-02-26T11:59:03;93387.59;;;13.40;74.15
61128;BME280;47013;42.664;23.242;2024-02-26T12:01:35;93398.47;;;13.40;73.96
61128;BME280;47013;42.664;23.242;2024-02-26T12:04:02;93390.66;;;13.54;73.74
61128;BME280;47013;42.664;23.242;2024-02-26T12:06:28;93399.03;;;13.47;73.23
61128;BME280;47013;42.664;23.242;2024-02-26T12:08:54;93403.25;;;13.74;72.41
61128;BME280;47013;42.664;23.242;2024-02-26T12:11:20;93402.44;;;13.99;70.73
61128;BME280;47013;42.664;23.242;2024-02-26T12:13:47;93410.19;;;14.00;69.45
61128;BME280;47013;42.664;23.242;2024-02-26T12:16:40;93400.13;;;14.10;67.51
61128;BME280;47013;42.664;23.242;2024-02-26T12:19:08;93404.25;;;14.14;67.51
61128;BME280;47013;42.664;23.242;2024-02-26T12:21:37;93400.19;;;14.19;66.94
61128;BME280;47013;42.664;23.242;2024-02-26T12:24:13;93398.34;;;14.16;66.07
61128;BME280;47013;42.664;23.242;2024-02-26T12:26:39;93406.22;;;14.14;66.63
61128;BME280;47013;42.664;23.242;2024-02-26T12:29:05;93406.22;;;14.14;67.07
61128;BME280;47013;42.664;23.242;2024-02-26T12:31:32;93416.81;;;14.12;67.40
61128;BME280;47013;42.664;23.242;2024-02-26T12:33:58;93419.22;;;14.10;66.71
61128;BME280;47013;42.664;23.242;2024-02-26T12:36:24;93418.25;;;14.04;66.67
61128;BME280;47013;42.664;23.242;2024-02-26T12:38:50;93412.47;;;14.02;67.23
61128;BME280;47013;42.664;23.242;2024-02-26T12:41:16;93412.47;;;14.02;66.64
61128;BME280;47013;42.664;23.242;2024-02-26T12:43:42;93408.78;;;13.96;66.74
61128;BME280;47013;42.664;23.242;2024-02-26T12:46:07;93415.19;;;14.02;67.09
61128;BME280;47013;42.664;23.242;2024-02-26T12:48:33;93409.19;;;14.07;66.42
61128;BME280;47013;42.664;23.242;2024-02-26T12:50:59;93407.88;;;14.11;65.88
61128;BME280;47013;42.664;23.242;2024-02-26T12:53:26;93409.53;;;13.96;65.73